createdAt,value
2022-10-13T06:51:09.361Z,20.10
2022-10-13T06:56:07.558Z,19.47
2022-10-13T07:23:07.850Z,16.33
2022-10-13T07:28:01.649Z,18.03
2022-10-13T07:47:39.975Z,18.00
2022-10-13T07:52:33.650Z,22.40
2022-10-13T07:57:28.270Z,19.60
2022-10-13T08:02:22.434Z,14.27
2022-10-13T08:20:02.257Z,13.97
2022-10-13T08:24:56.111Z,16.63
2022-10-13T08:29:50.309Z,15.20
2022-10-13T08:34:44.539Z,17.63
2022-10-13T08:39:39.692Z,15.47
2022-10-13T08:45:15.784Z,15.93
2022-10-13T08:49:56.497Z,17.17
2022-10-13T08:54:56.434Z,14.70
2022-10-13T08:59:51.430Z,16.87
2022-10-13T09:04:49.526Z,21.10
2022-10-13T09:09:43.494Z,22.27
2022-10-13T09:14:40.353Z,17.13
2022-10-13T09:19:36.680Z,19.03
2022-10-13T09:24:32.331Z,16.63
2022-10-13T09:29:27.958Z,16.50
2022-10-13T09:34:27.004Z,16.15
2022-10-13T09:39:25.148Z,16.57
2022-10-13T09:44:28.297Z,13.15
2022-10-13T09:49:45.093Z,17.30
2022-10-13T09:54:44.850Z,12.38
2022-10-13T09:59:42.698Z,14.82
2022-10-13T10:04:42.402Z,13.43
2022-10-13T10:09:41.110Z,15.27
2022-10-13T10:14:39.376Z,12.65
2022-10-13T10:19:53.511Z,14.27
2022-10-13T10:24:55.149Z,11.73
2022-10-13T10:29:54.273Z,13.88
2022-10-13T10:34:54.875Z,18.80
2022-10-13T10:39:57.447Z,13.68
2022-10-13T10:44:53.942Z,18.52
2022-10-13T10:49:49.095Z,16.00
2022-10-13T10:54:50.767Z,15.98
2022-10-13T11:00:01.060Z,18.05
2022-10-13T11:04:55.475Z,15.18
2022-10-13T11:10:05.168Z,13.75
2022-10-13T11:15:11.397Z,16.40
2022-10-13T11:20:43.611Z,15.90
2022-10-13T11:25:39.767Z,13.35
2022-10-13T11:30:50.677Z,15.30
2022-10-13T11:35:44.587Z,13.68
2022-10-13T11:40:46.338Z,16.02
2022-10-13T11:46:07.847Z,17.25
2022-10-13T11:51:16.837Z,17.20
2022-10-13T11:56:22.315Z,15.35
2022-10-13T12:01:19.250Z,16.38
2022-10-13T12:06:33.327Z,16.45
2022-10-13T12:11:29.462Z,14.95
2022-10-13T12:16:23.760Z,15.40
2022-10-13T12:21:21.175Z,18.33
2022-10-13T12:26:19.164Z,20.55
2022-10-13T12:31:20.903Z,18.13
2022-10-13T12:36:18.941Z,11.07
2022-10-13T12:41:13.302Z,17.60
2022-10-13T12:46:09.728Z,16.23
2022-10-13T12:51:17.247Z,13.52
2022-10-13T12:56:24.959Z,14.23
2022-10-13T13:01:29.403Z,14.02
2022-10-13T13:06:29.913Z,15.63
2022-10-13T13:11:34.589Z,12.38
2022-10-13T13:16:32.679Z,15.40
2022-10-13T13:21:26.458Z,12.70
2022-10-13T13:26:21.994Z,16.63
2022-10-13T13:31:16.687Z,12.68
2022-10-13T13:36:17.704Z,14.93
2022-10-13T13:41:13.769Z,14.05
2022-10-13T13:46:08.483Z,11.93
2022-10-13T13:51:02.312Z,14.73
2022-10-13T13:55:57.514Z,15.30
2022-10-13T14:00:51.533Z,13.00
2022-10-13T14:05:45.074Z,16.77
2022-10-13T14:10:41.548Z,16.10
2022-10-13T14:15:36.594Z,12.52
2022-10-13T14:20:30.187Z,14.50
2022-10-13T14:25:24.377Z,13.93
2022-10-13T14:30:18.358Z,16.38
2022-10-13T14:35:13.855Z,12.98
2022-10-13T14:40:08.365Z,12.95
2022-10-13T14:45:03.289Z,13.85
2022-10-13T14:49:57.102Z,16.88
2022-10-13T14:54:52.255Z,13.20
2022-10-13T14:59:45.924Z,14.68
2022-10-13T15:04:39.665Z,16.13
2022-10-13T15:09:45.294Z,17.42
2022-10-13T15:14:48.553Z,16.77
2022-10-13T15:19:42.204Z,19.77
2022-10-13T15:24:35.758Z,21.90
2022-10-13T15:29:29.351Z,18.38
2022-10-13T15:34:24.667Z,16.33
2022-10-13T15:39:18.787Z,19.20
2022-10-13T15:44:12.460Z,21.60
2022-10-13T15:49:06.146Z,35.95
2022-10-13T15:54:01.582Z,24.45
2022-10-13T15:58:55.163Z,25.98
2022-10-13T16:03:48.991Z,23.13
2022-10-13T16:08:44.186Z,19.95
2022-10-13T16:13:41.866Z,20.42
2022-10-13T16:18:40.702Z,21.73
2022-10-13T16:23:34.581Z,23.63
2022-10-13T16:28:28.651Z,23.33
2022-10-13T16:33:24.114Z,29.90
2022-10-13T16:38:18.080Z,28.77
2022-10-13T16:43:11.933Z,36.38
2022-10-13T16:48:10.058Z,27.70
2022-10-13T16:53:05.526Z,31.80
2022-10-13T16:57:59.190Z,25.25
2022-10-13T17:02:53.048Z,24.58
2022-10-13T17:07:46.985Z,30.02
2022-10-13T17:12:42.278Z,26.38
2022-10-13T17:17:36.550Z,26.02
2022-10-13T17:22:30.556Z,25.60
2022-10-13T17:27:24.362Z,22.40
2022-10-13T17:32:19.757Z,27.10
2022-10-13T17:37:13.565Z,25.35
2022-10-13T17:42:07.396Z,30.40
2022-10-13T17:47:01.001Z,26.45
2022-10-13T17:51:56.977Z,19.20
2022-10-13T17:56:51.927Z,20.42
2022-10-13T18:01:45.964Z,20.65
2022-10-13T18:06:41.615Z,22.90
2022-10-13T18:11:36.950Z,21.63
2022-10-13T18:16:31.126Z,24.40
2022-10-13T18:21:27.622Z,31.47
2022-10-13T18:26:21.822Z,24.30
2022-10-13T18:31:18.681Z,25.45
2022-10-13T18:36:19.899Z,25.65
2022-10-13T18:41:13.858Z,25.15
2022-10-13T18:46:08.194Z,50.97
2022-10-13T18:51:06.303Z,26.33
2022-10-13T18:56:05.239Z,24.00
2022-10-13T19:01:04.029Z,23.30
2022-10-13T19:05:59.469Z,25.73
2022-10-13T19:10:54.514Z,27.53
